createdAt,value
2023-03-07T00:00:08.385Z,91.74
2023-03-07T00:02:56.486Z,91.85
2023-03-07T00:05:24.710Z,91.80
2023-03-07T00:07:52.875Z,92.04
2023-03-07T00:10:21.052Z,92.01
2023-03-07T00:12:49.214Z,92.09
2023-03-07T00:15:18.011Z,92.32
2023-03-07T00:17:46.175Z,92.61
2023-03-07T00:20:15.476Z,92.66
2023-03-07T00:22:44.368Z,92.70
2023-03-07T00:25:13.488Z,92.81
2023-03-07T00:27:41.834Z,92.71
2023-03-07T00:30:12.606Z,92.75
2023-03-07T00:32:40.984Z,92.49
2023-03-07T00:35:09.219Z,92.57
2023-03-07T00:37:37.388Z,92.55
2023-03-07T00:40:07.604Z,92.61
2023-03-07T00:42:35.794Z,92.59
2023-03-07T00:45:04.261Z,92.55
2023-03-07T00:47:32.541Z,92.45
2023-03-07T00:50:00.811Z,92.68
2023-03-07T00:52:28.934Z,92.57
2023-03-07T00:54:57.363Z,92.52
2023-03-07T00:57:25.742Z,92.54
2023-03-07T00:59:54.115Z,92.74
2023-03-07T01:02:22.493Z,92.51
2023-03-07T01:04:50.768Z,92.56
2023-03-07T01:07:18.940Z,92.54
2023-03-07T01:09:51.512Z,92.63
2023-03-07T01:12:19.900Z,92.79
2023-03-07T01:14:51.218Z,92.93
2023-03-07T01:17:19.517Z,93.07
2023-03-07T01:19:47.993Z,93.26
2023-03-07T01:22:16.372Z,93.35
2023-03-07T01:24:44.577Z,93.59
2023-03-07T01:27:12.817Z,93.64
2023-03-07T01:29:41.195Z,93.48
2023-03-07T01:32:09.877Z,93.49
2023-03-07T01:34:38.564Z,93.49
2023-03-07T01:37:06.734Z,93.62
2023-03-07T01:39:35.218Z,93.44
2023-03-07T01:42:09.633Z,93.55
2023-03-07T01:45:02.902Z,93.83
2023-03-07T01:47:43.634Z,93.85
2023-03-07T01:50:16.541Z,93.83
2023-03-07T01:52:52.502Z,93.82
2023-03-07T01:55:25.212Z,94.00
2023-03-07T01:57:57.033Z,93.83
2023-03-07T02:00:31.250Z,93.62
2023-03-07T02:03:39.330Z,93.57
2023-03-07T02:06:11.420Z,93.50
2023-03-07T02:08:40.100Z,93.44
2023-03-07T02:11:08.787Z,93.34
2023-03-07T02:13:36.954Z,93.29
2023-03-07T02:16:06.682Z,93.21
2023-03-07T02:18:39.034Z,93.25
2023-03-07T02:21:30.348Z,93.13
2023-03-07T02:24:16.644Z,93.29
2023-03-07T02:26:47.173Z,93.29
2023-03-07T02:29:16.061Z,93.08
2023-03-07T02:31:47.409Z,93.15
2023-03-07T02:34:27.781Z,93.23
2023-03-07T02:37:09.079Z,93.36
2023-03-07T02:39:39.561Z,93.41
2023-03-07T02:42:10.532Z,93.65
2023-03-07T02:44:47.078Z,93.67
2023-03-07T02:47:17.001Z,93.71
2023-03-07T02:49:45.267Z,93.64
2023-03-07T02:52:13.644Z,93.50
2023-03-07T02:54:41.918Z,93.67
2023-03-07T02:57:10.911Z,93.42
2023-03-07T02:59:39.083Z,93.63
2023-03-07T03:02:08.077Z,93.67
2023-03-07T03:04:36.588Z,93.68
2023-03-07T03:07:04.933Z,93.85
2023-03-07T03:09:33.117Z,93.91
2023-03-07T03:12:01.284Z,94.04
2023-03-07T03:14:30.788Z,94.21
2023-03-07T03:16:59.058Z,94.39
2023-03-07T03:19:29.182Z,94.52
2023-03-07T03:21:57.867Z,94.47
2023-03-07T03:24:26.546Z,94.42
2023-03-07T03:26:58.312Z,94.46
2023-03-07T03:29:27.811Z,94.44
2023-03-07T03:31:58.848Z,94.40
2023-03-07T03:34:27.527Z,94.38
2023-03-07T03:36:55.806Z,94.42
2023-03-07T03:39:24.284Z,94.44
2023-03-07T03:41:57.272Z,94.47
2023-03-07T03:44:25.645Z,94.54
2023-03-07T03:46:55.942Z,94.62
2023-03-07T03:49:24.647Z,94.53
2023-03-07T03:51:54.261Z,94.61
2023-03-07T03:54:22.940Z,94.71
2023-03-07T03:56:51.226Z,94.78
2023-03-07T03:59:19.387Z,94.54
2023-03-07T04:01:48.042Z,94.31
2023-03-07T04:04:16.552Z,94.31
2023-03-07T04:06:44.929Z,94.53
2023-03-07T04:09:13.097Z,94.51
2023-03-07T04:11:43.623Z,94.60
2023-03-07T04:14:12.020Z,94.73
2023-03-07T04:16:40.582Z,94.82
2023-03-07T04:19:12.929Z,94.98
2023-03-07T04:21:41.331Z,94.98
2023-03-07T04:24:10.223Z,95.01
2023-03-07T04:26:38.320Z,94.94
2023-03-07T04:29:06.577Z,94.69
2023-03-07T04:31:40.079Z,94.76
2023-03-07T04:34:08.946Z,94.70
2023-03-07T04:36:37.230Z,94.91
2023-03-07T04:39:05.400Z,94.91
2023-03-07T04:41:34.292Z,94.80
2023-03-07T04:44:06.757Z,95.01
2023-03-07T04:46:35.038Z,95.13
2023-03-07T04:49:03.206Z,95.23
2023-03-07T04:51:31.482Z,95.22
2023-03-07T04:53:59.859Z,95.28
2023-03-07T04:56:28.029Z,95.21
2023-03-07T04:58:56.609Z,95.14
2023-03-07T05:01:24.820Z,95.06
2023-03-07T05:03:53.157Z,95.05
2023-03-07T05:06:22.070Z,94.95
2023-03-07T05:08:52.168Z,94.90
2023-03-07T05:11:21.159Z,95.02
2023-03-07T05:13:50.460Z,95.02
2023-03-07T05:16:20.880Z,95.06
2023-03-07T05:18:49.462Z,95.22
2023-03-07T05:21:18.262Z,95.35
2023-03-07T05:23:46.626Z,95.30
2023-03-07T05:26:15.312Z,95.26
2023-03-07T05:28:43.687Z,95.15
2023-03-07T05:31:11.890Z,95.04
2023-03-07T05:33:42.799Z,94.87
2023-03-07T05:36:11.788Z,94.91
2023-03-07T05:38:40.581Z,94.89
2023-03-07T05:41:09.375Z,94.90
2023-03-07T05:43:37.533Z,94.88
2023-03-07T05:46:06.133Z,94.84
2023-03-07T05:48:34.561Z,94.84
2023-03-07T05:51:02.865Z,95.16
2023-03-07T05:53:31.972Z,95.39
2023-03-07T05:56:00.550Z,95.39
2023-03-07T05:58:29.743Z,95.55
2023-03-07T06:00:58.016Z,95.46
2023-03-07T06:03:26.962Z,95.36
2023-03-07T06:05:55.181Z,95.25
2023-03-07T06:08:23.762Z,95.26
2023-03-07T06:10:53.674Z,95.36
2023-03-07T06:13:24.307Z,95.52
2023-03-07T06:15:53.743Z,95.36
2023-03-07T06:18:23.311Z,95.47
2023-03-07T06:21:02.027Z,95.43
2023-03-07T06:23:33.916Z,95.55
2023-03-07T06:26:03.783Z,95.35
2023-03-07T06:28:32.994Z,95.32
2023-03-07T06:31:09.202Z,95.20
2023-03-07T06:33:37.654Z,95.04
2023-03-07T06:36:11.855Z,94.86
2023-03-07T06:38:41.565Z,94.81
2023-03-07T06:41:10.346Z,94.93
2023-03-07T06:43:39.748Z,94.83
2023-03-07T06:46:08.812Z,94.84
2023-03-07T06:48:40.086Z,94.86
2023-03-07T06:51:11.228Z,94.78
2023-03-07T06:53:41.450Z,94.72
2023-03-07T06:56:10.138Z,94.81
2023-03-07T06:58:39.844Z,94.98
2023-03-07T07:01:16.029Z,95.01
2023-03-07T07:03:44.578Z,94.93
2023-03-07T07:06:12.761Z,94.97
2023-03-07T07:08:42.051Z,95.06
2023-03-07T07:11:10.742Z,95.05
2023-03-07T07:13:39.521Z,95.04
2023-03-07T07:16:09.053Z,95.25
2023-03-07T07:18:38.220Z,95.42
2023-03-07T07:21:06.906Z,95.46
2023-03-07T07:23:35.081Z,95.46
2023-03-07T07:26:05.198Z,95.43
2023-03-07T07:28:34.403Z,95.37
2023-03-07T07:31:04.324Z,95.35
2023-03-07T07:33:33.710Z,95.01
2023-03-07T07:36:02.115Z,94.93
2023-03-07T07:38:30.775Z,94.92
2023-03-07T07:40:59.457Z,94.69
2023-03-07T07:43:27.628Z,94.85
2023-03-07T07:46:04.938Z,94.71
2023-03-07T07:48:33.889Z,94.77
2023-03-07T07:51:03.106Z,94.74
2023-03-07T07:53:32.193Z,94.62
2023-03-07T07:56:00.956Z,94.39
2023-03-07T07:58:29.366Z,94.28
2023-03-07T08:00:58.354Z,94.30
2023-03-07T08:03:27.145Z,94.47
2023-03-07T08:05:55.619Z,94.03
2023-03-07T08:08:23.688Z,94.01
2023-03-07T08:10:52.686Z,93.79
2023-03-07T08:13:21.061Z,93.78
2023-03-07T08:15:49.269Z,93.57
2023-03-07T08:18:17.508Z,93.69
2023-03-07T08:20:45.677Z,93.49
2023-03-07T08:23:13.859Z,93.32
2023-03-07T08:25:42.025Z,93.32
2023-03-07T08:28:10.196Z,92.97
2023-03-07T08:30:38.581Z,92.59
2023-03-07T08:33:07.575Z,92.30
2023-03-07T08:35:35.785Z,92.18
2023-03-07T08:38:04.130Z,92.38
2023-03-07T08:40:32.389Z,92.11
2023-03-07T08:43:01.183Z,92.14
2023-03-07T08:45:29.454Z,91.92
2023-03-07T08:47:58.027Z,91.77
2023-03-07T08:50:28.664Z,91.67
2023-03-07T08:52:57.967Z,91.38
2023-03-07T08:55:26.336Z,91.26
2023-03-07T08:57:54.500Z,90.65
2023-03-07T09:00:22.994Z,90.33
2023-03-07T09:02:51.172Z,90.18
2023-03-07T09:05:19.549Z,90.28
2023-03-07T09:07:47.700Z,90.14
2023-03-07T09:10:17.380Z,89.75
2023-03-07T09:12:45.432Z,89.62
2023-03-07T09:15:13.678Z,89.28
2023-03-07T09:17:41.840Z,89.00
2023-03-07T09:20:12.016Z,89.00
2023-03-07T09:22:40.219Z,89.53
2023-03-07T09:25:09.619Z,89.63
2023-03-07T09:27:37.904Z,89.80
2023-03-07T09:30:06.882Z,89.96
2023-03-07T09:32:35.125Z,90.06
2023-03-07T09:35:04.053Z,89.98
2023-03-07T09:37:32.221Z,90.84
2023-03-07T09:40:00.444Z,90.70
2023-03-07T09:42:40.359Z,91.13
2023-03-07T09:45:11.796Z,91.37
2023-03-07T09:48:25.640Z,90.62
2023-03-07T09:50:58.419Z,90.81
2023-03-07T09:53:48.256Z,90.35
2023-03-07T09:56:22.204Z,90.30
2023-03-07T09:59:22.629Z,90.42
2023-03-07T10:02:17.737Z,89.95
2023-03-07T10:04:52.562Z,90.18
2023-03-07T10:07:24.114Z,89.83
2023-03-07T10:09:57.207Z,89.83
2023-03-07T10:12:25.374Z,89.72
2023-03-07T10:15:03.896Z,89.59
2023-03-07T10:17:47.241Z,89.63
2023-03-07T10:20:45.291Z,89.47
2023-03-07T10:23:41.798Z,89.34
2023-03-07T10:26:12.379Z,89.29
2023-03-07T10:28:42.688Z,88.79
2023-03-07T10:31:11.050Z,88.77
2023-03-07T10:33:40.862Z,88.71
2023-03-07T10:36:35.173Z,88.92
2023-03-07T10:39:34.956Z,88.87
2023-03-07T10:42:03.131Z,88.63
2023-03-07T10:44:34.577Z,88.39
2023-03-07T10:47:03.002Z,88.26
2023-03-07T10:49:33.585Z,88.00
2023-03-07T10:52:13.230Z,87.73
2023-03-07T10:54:41.398Z,87.35
2023-03-07T10:57:14.967Z,86.95
2023-03-07T10:59:45.421Z,86.74
2023-03-07T11:02:25.982Z,86.65
2023-03-07T11:04:54.616Z,86.38
2023-03-07T11:07:29.827Z,86.59
2023-03-07T11:09:59.311Z,86.07
2023-03-07T11:12:29.527Z,85.81
2023-03-07T11:15:09.165Z,85.69
2023-03-07T11:17:45.126Z,85.79
2023-03-07T11:20:49.544Z,84.96
2023-03-07T11:23:24.583Z,84.77
2023-03-07T11:25:55.088Z,84.50
2023-03-07T11:28:27.475Z,84.31
2023-03-07T11:31:04.882Z,84.20
2023-03-07T11:33:58.534Z,83.97
2023-03-07T11:36:28.135Z,83.18
2023-03-07T11:39:15.263Z,82.86
2023-03-07T11:41:47.828Z,82.89
2023-03-07T11:44:29.106Z,82.15
2023-03-07T11:47:13.367Z,82.03
2023-03-07T11:49:57.710Z,80.98
2023-03-07T11:53:12.268Z,81.06
2023-03-07T11:56:13.208Z,81.40
2023-03-07T11:59:24.591Z,81.78
2023-03-07T12:01:56.760Z,81.72
2023-03-07T12:04:43.581Z,81.36
2023-03-07T12:07:17.992Z,81.63
2023-03-07T12:10:23.640Z,81.64
2023-03-07T12:13:10.976Z,81.50
2023-03-07T12:15:51.588Z,81.84
2023-03-07T12:18:44.081Z,81.68
2023-03-07T12:21:43.270Z,81.57
2023-03-07T12:24:23.524Z,80.92
2023-03-07T12:27:03.938Z,80.02
2023-03-07T12:30:04.411Z,80.10
2023-03-07T12:32:34.122Z,80.00
2023-03-07T12:35:21.425Z,79.54
2023-03-07T12:38:14.290Z,79.09
2023-03-07T12:40:46.667Z,78.86
2023-03-07T12:43:48.118Z,78.91
2023-03-07T12:46:34.798Z,79.23
2023-03-07T12:49:49.917Z,79.35
2023-03-07T12:52:29.550Z,78.74
2023-03-07T12:55:19.415Z,78.92
2023-03-07T12:58:07.354Z,77.76
2023-03-07T13:00:43.682Z,77.19
2023-03-07T13:03:17.211Z,76.67
2023-03-07T13:05:45.690Z,76.84
2023-03-07T13:08:20.725Z,76.70
2023-03-07T13:10:48.893Z,76.48
2023-03-07T13:13:45.326Z,76.20
2023-03-07T13:16:32.580Z,75.70
2023-03-07T13:19:35.431Z,75.58
2023-03-07T13:22:16.695Z,75.90
2023-03-07T13:24:46.109Z,76.13
2023-03-07T13:27:31.388Z,76.13
2023-03-07T13:30:08.564Z,76.12
2023-03-07T13:32:52.437Z,75.09
2023-03-07T13:35:33.673Z,74.94
2023-03-07T13:38:07.810Z,75.04
2023-03-07T13:40:38.048Z,75.38
2023-03-07T13:43:28.152Z,75.29
2023-03-07T13:46:05.215Z,75.54
2023-03-07T13:48:33.353Z,75.38
2023-03-07T13:51:01.526Z,75.32
2023-03-07T13:53:44.340Z,75.61
2023-03-07T13:56:15.486Z,75.50
2023-03-07T13:59:09.987Z,75.55
2023-03-07T14:01:53.298Z,75.68
2023-03-07T14:04:51.891Z,75.67
2023-03-07T14:07:34.290Z,75.70
2023-03-07T14:10:21.481Z,75.77
2023-03-07T14:12:52.246Z,75.08
2023-03-07T14:15:29.104Z,74.91
2023-03-07T14:18:27.810Z,74.45
2023-03-07T14:21:03.559Z,74.41
2023-03-07T14:23:59.995Z,74.71
2023-03-07T14:26:58.580Z,73.96
2023-03-07T14:29:28.098Z,74.27
2023-03-07T14:31:58.453Z,74.42
2023-03-07T14:34:35.086Z,74.00
2023-03-07T14:37:07.175Z,74.23
2023-03-07T14:39:44.940Z,74.01
2023-03-07T14:42:42.603Z,74.27
2023-03-07T14:45:13.753Z,73.91
2023-03-07T14:47:51.845Z,73.79
2023-03-07T14:50:22.375Z,73.47
2023-03-07T14:52:58.228Z,73.32
2023-03-07T14:55:28.648Z,73.27
2023-03-07T14:57:56.921Z,73.41
2023-03-07T15:00:28.901Z,73.13
2023-03-07T15:03:07.690Z,73.21
2023-03-07T15:05:38.261Z,73.12
2023-03-07T15:08:17.051Z,72.97
2023-03-07T15:10:46.455Z,71.85
2023-03-07T15:13:23.858Z,72.29
2023-03-07T15:16:21.066Z,72.62
2023-03-07T15:18:55.413Z,72.11
2023-03-07T15:21:24.922Z,72.06
2023-03-07T15:23:55.548Z,72.33
2023-03-07T15:26:25.158Z,72.63
2023-03-07T15:29:08.674Z,72.51
2023-03-07T15:31:58.641Z,72.02
2023-03-07T15:34:30.725Z,71.76
2023-03-07T15:37:22.498Z,71.65
2023-03-07T15:40:08.149Z,71.85
2023-03-07T15:42:49.834Z,71.31
2023-03-07T15:46:01.918Z,71.20
2023-03-07T15:48:38.111Z,71.09
2023-03-07T15:51:12.085Z,70.96
2023-03-07T15:53:41.917Z,70.96
2023-03-07T15:56:27.307Z,71.05
2023-03-07T15:59:00.264Z,70.75
2023-03-07T16:01:28.470Z,70.80
2023-03-07T16:04:03.265Z,70.93
2023-03-07T16:06:45.798Z,70.74
2023-03-07T16:09:16.418Z,70.52
2023-03-07T16:11:46.127Z,70.71
2023-03-07T16:14:26.604Z,70.61
2023-03-07T16:17:04.175Z,70.70
2023-03-07T16:19:32.349Z,70.53
2023-03-07T16:22:00.627Z,70.20
2023-03-07T16:24:28.798Z,70.21
2023-03-07T16:26:58.091Z,69.92
2023-03-07T16:29:26.263Z,69.52
2023-03-07T16:31:54.505Z,69.93
2023-03-07T16:34:23.428Z,69.93
2023-03-07T16:36:51.596Z,69.58
2023-03-07T16:39:19.870Z,69.26
2023-03-07T16:41:49.593Z,69.03
2023-03-07T16:44:20.006Z,69.42
2023-03-07T16:47:11.726Z,68.75
2023-03-07T16:49:40.024Z,68.68
2023-03-07T16:52:12.371Z,68.66
2023-03-07T16:54:40.955Z,68.48
2023-03-07T16:57:14.567Z,68.46
2023-03-07T16:59:46.181Z,67.63
2023-03-07T17:02:19.764Z,68.01
2023-03-07T17:04:48.081Z,68.20
2023-03-07T17:07:18.714Z,67.63
2023-03-07T17:09:46.883Z,67.80
2023-03-07T17:12:15.984Z,67.89
2023-03-07T17:14:44.925Z,68.09
2023-03-07T17:17:29.269Z,68.43
2023-03-07T17:19:57.500Z,68.46
2023-03-07T17:22:25.665Z,68.48
2023-03-07T17:24:53.742Z,68.13
2023-03-07T17:27:22.091Z,68.28
2023-03-07T17:29:54.608Z,68.11
2023-03-07T17:32:22.997Z,68.21
2023-03-07T17:34:51.256Z,68.35
2023-03-07T17:37:19.409Z,68.36
2023-03-07T17:39:48.634Z,68.57
2023-03-07T17:42:16.786Z,68.65
2023-03-07T17:44:44.954Z,68.22
2023-03-07T17:47:13.125Z,68.38
2023-03-07T17:49:41.397Z,67.93
2023-03-07T17:52:09.892Z,68.11
2023-03-07T17:54:38.561Z,67.61
2023-03-07T17:57:08.168Z,68.09
2023-03-07T17:59:36.442Z,68.30
2023-03-07T18:02:05.821Z,68.39
2023-03-07T18:04:34.017Z,68.29
2023-03-07T18:07:02.201Z,68.53
2023-03-07T18:09:31.181Z,68.54
2023-03-07T18:11:59.975Z,68.54
2023-03-07T18:14:28.549Z,68.85
2023-03-07T18:16:56.928Z,68.98
2023-03-07T18:19:26.949Z,68.98
2023-03-07T18:21:55.668Z,69.18
2023-03-07T18:24:26.623Z,69.15
2023-03-07T18:26:55.789Z,69.16
2023-03-07T18:29:24.544Z,69.22
2023-03-07T18:31:52.933Z,69.22
2023-03-07T18:34:21.604Z,69.46
2023-03-07T18:36:51.835Z,69.90
2023-03-07T18:39:21.631Z,69.87
2023-03-07T18:41:50.033Z,70.32
2023-03-07T18:44:18.896Z,71.17
2023-03-07T18:46:47.211Z,71.65
2023-03-07T18:49:16.267Z,72.27
2023-03-07T18:51:46.215Z,73.04
2023-03-07T18:54:14.461Z,73.88
2023-03-07T18:56:46.494Z,74.18
2023-03-07T18:59:15.320Z,74.94
2023-03-07T19:01:44.255Z,75.74
2023-03-07T19:04:12.466Z,76.75
2023-03-07T19:06:44.817Z,77.07
2023-03-07T19:09:18.645Z,77.21
2023-03-07T19:11:47.652Z,77.83
2023-03-07T19:14:15.910Z,78.41
2023-03-07T19:16:44.130Z,78.52
2023-03-07T19:19:12.358Z,78.75
2023-03-07T19:21:40.532Z,79.04
2023-03-07T19:24:11.586Z,78.80
2023-03-07T19:26:41.084Z,79.78
2023-03-07T19:29:11.314Z,80.18
2023-03-07T19:31:41.064Z,80.21
2023-03-07T19:34:09.788Z,80.26
2023-03-07T19:36:39.401Z,80.77
2023-03-07T19:39:15.321Z,80.96
2023-03-07T19:41:45.672Z,81.11
2023-03-07T19:44:14.791Z,81.42
2023-03-07T19:46:46.558Z,81.50
2023-03-07T19:49:18.181Z,81.89
2023-03-07T19:51:46.459Z,81.90
2023-03-07T19:54:15.352Z,81.99
2023-03-07T19:56:45.767Z,82.20
2023-03-07T19:59:14.044Z,82.17
2023-03-07T20:01:42.588Z,82.70
2023-03-07T20:04:16.218Z,82.74
2023-03-07T20:06:44.974Z,82.53
2023-03-07T20:09:13.587Z,82.41
2023-03-07T20:11:45.452Z,82.66
2023-03-07T20:14:13.738Z,82.75
2023-03-07T20:16:42.001Z,83.09
2023-03-07T20:19:10.886Z,83.24
2023-03-07T20:21:40.397Z,83.31
2023-03-07T20:24:09.400Z,83.34
2023-03-07T20:26:39.290Z,83.25
2023-03-07T20:29:09.646Z,83.24
2023-03-07T20:31:39.578Z,83.32
2023-03-07T20:34:08.448Z,83.46
2023-03-07T20:36:37.775Z,83.59
2023-03-07T20:39:08.364Z,83.93
2023-03-07T20:41:36.523Z,84.05
2023-03-07T20:44:08.008Z,83.84
2023-03-07T20:46:37.827Z,83.87
2023-03-07T20:49:06.357Z,83.76
2023-03-07T20:51:36.278Z,83.65
2023-03-07T20:54:07.285Z,83.81
2023-03-07T20:56:37.000Z,84.01
2023-03-07T20:59:06.424Z,83.88
2023-03-07T21:01:35.680Z,84.00
2023-03-07T21:04:06.417Z,84.28
2023-03-07T21:06:35.656Z,84.31
2023-03-07T21:09:08.124Z,84.25
2023-03-07T21:11:38.146Z,84.39
2023-03-07T21:14:06.727Z,84.26
2023-03-07T21:16:35.046Z,84.19
2023-03-07T21:19:05.223Z,84.38
2023-03-07T21:21:35.009Z,84.37
2023-03-07T21:24:04.017Z,84.61
2023-03-07T21:26:34.345Z,84.61
2023-03-07T21:29:05.998Z,84.77
2023-03-07T21:31:35.511Z,84.73
2023-03-07T21:34:06.742Z,84.80
2023-03-07T21:36:35.017Z,84.88
2023-03-07T21:39:10.358Z,84.87
2023-03-07T21:41:38.833Z,85.09
2023-03-07T21:44:07.531Z,84.90
2023-03-07T21:46:35.895Z,85.11
2023-03-07T21:49:04.174Z,85.25
2023-03-07T21:51:32.342Z,85.11
2023-03-07T21:54:01.025Z,85.22
2023-03-07T21:56:29.197Z,85.25
2023-03-07T21:58:57.676Z,85.26
2023-03-07T22:01:28.944Z,85.00
2023-03-07T22:03:59.483Z,84.95
2023-03-07T22:06:28.677Z,84.80
2023-03-07T22:08:59.389Z,84.85
2023-03-07T22:11:27.549Z,85.11
2023-03-07T22:13:55.941Z,85.38
2023-03-07T22:16:24.277Z,85.35
2023-03-07T22:18:56.807Z,85.44
2023-03-07T22:21:26.471Z,85.81
2023-03-07T22:23:58.342Z,86.22
2023-03-07T22:26:28.663Z,86.16
2023-03-07T22:28:56.939Z,86.39
2023-03-07T22:31:25.752Z,86.24
2023-03-07T22:33:54.101Z,86.29
2023-03-07T22:36:22.270Z,86.46
2023-03-07T22:38:55.340Z,86.64
2023-03-07T22:41:24.572Z,86.84
2023-03-07T22:43:52.835Z,87.06
2023-03-07T22:46:22.003Z,87.42
2023-03-07T22:48:55.010Z,87.39
2023-03-07T22:51:24.528Z,87.34
2023-03-07T22:53:53.099Z,87.59
2023-03-07T22:56:24.243Z,87.28
2023-03-07T22:58:52.719Z,87.24
2023-03-07T23:01:25.910Z,87.38
2023-03-07T23:03:55.316Z,87.30
2023-03-07T23:06:25.941Z,87.22
2023-03-07T23:08:54.116Z,86.98
2023-03-07T23:11:24.127Z,87.27
2023-03-07T23:13:53.116Z,87.25
2023-03-07T23:16:24.058Z,87.49
2023-03-07T23:18:55.028Z,87.65
2023-03-07T23:21:27.056Z,87.55
2023-03-07T23:23:56.048Z,87.84
2023-03-07T23:26:26.591Z,87.76
2023-03-07T23:28:55.360Z,87.84
2023-03-07T23:31:32.509Z,87.88
2023-03-07T23:34:02.455Z,87.76
2023-03-07T23:36:32.066Z,87.42
2023-03-07T23:39:00.859Z,87.51
2023-03-07T23:41:29.035Z,87.62
2023-03-07T23:43:59.653Z,87.50
2023-03-07T23:46:28.775Z,87.67
2023-03-07T23:48:57.443Z,87.69
2023-03-07T23:51:25.920Z,87.81
2023-03-07T23:53:53.988Z,87.91
2023-03-07T23:56:22.250Z,87.94
2023-03-07T23:58:51.653Z,87.90
